Skogbrann Fra: 30-03-2020 07:00 Til: 03-04-2020 13:00 Advarsel for: Skogbrann Nivå: Gul info button

Nearby METAR Reports

 

ENRY - Rygge (nor-Afb), Norway
Distance from station: SØ 12km
Oppdatert: 30/03/2020 12:50
Klart
Klart
 Vind fra varies
Vind: varies 2 km/h
Temperatur: 1°C
Duggpunkt: -10°C
Fuktighet: 44%
Barometer: 1030 hPa
Oversikt: Klart
Visibility: greater than 10 km
2020/03/30 19:50 ENRY 301950Z VRB01KT CAVOK 01/M10 Q1030
ENTO - Torp (civ/Nor-Af, Norway
Distance from station: SV 34km
Oppdatert: 30/03/2020 12:50
Klart
Klart
 Vind fra V
Vind: V 6 km/h
Temperatur: 1°C
Duggpunkt: -7°C
Fuktighet: 56%
Barometer: 1030 hPa
Oversikt: Klart
Visibility: greater than 10 km
2020/03/30 19:50 ENTO 301950Z 26003KT CAVOK 01/M07 Q1030 NOSIG
 
ENNO - Notodden, Norway
Distance from station: V 80km
Oppdatert: 12/03/2020 07:50
NOT Current
Delvis skyet
Delvis skyet
 Vind fra V
Vind: V 15 km/h
Temperatur: 7°C
Wind Chill: 4°C
Duggpunkt: -4°C
Fuktighet: 46%
Barometer: 985 hPa
Clouds: Delvis skyet
Visibility: 10 km
Cloud details: Few Clouds 1829 m
Delvis skyet 2591 m
2020/03/12 14:50 ENNO 121450Z 28008KT 9999 FEW060 SCT085 07/M04 Q0985
ENGM - Oslo/Gardermoen, Norway
Distance from station: NNØ 88km
Oppdatert: 30/03/2020 12:50
Klart
Klart
 Vind fra calm
Vind: Stille
Temperatur: -2°C
Duggpunkt: -9°C
Fuktighet: 59%
Barometer: 1029 hPa
Oversikt: Klart
Visibility: greater than 10 km
2020/03/30 19:50 ENGM 301950Z 00000KT CAVOK M02/M09 Q1029 NOSIG
 
ESOK - Karlstad North, Sweden
Distance from station: Ø 153km
Oppdatert: 30/03/2020 12:50
Klart
Klart
 Vind fra NNØ
Vind: NNØ 6 km/h
Temperatur: -4°C
Duggpunkt: -12°C
Fuktighet: 54%
Barometer: 1029 hPa
Clouds: Klart
Visibility: 10 km
2020/03/30 19:50 ESOK 301950Z AUTO 02003KT 9999 NCD M04/M12 Q1029
ESST - Torsby, Sweden
Distance from station: ØNØ 154km
Oppdatert: 30/03/2020 12:50
Klart
Klart
 Vind fra NV
Vind: NV 9 km/h
Temperatur: -3°C
Wind Chill: -7°C
Duggpunkt: -10°C
Fuktighet: 59%
Barometer: 1029 hPa
Clouds: Klart
Visibility: 10 km
2020/03/30 19:50 ESST 301950Z AUTO 32005KT 9999 NCD M03/M10 Q1029
 
ESGT - Trollhattan (pvt, Sweden
Distance from station: SØ 159km
Oppdatert: 30/03/2020 12:50
Few Clouds
Few Clouds
 Vind fra V
Vind: V 7 km/h
Temperatur: -2°C
Wind Chill: -6°C
Duggpunkt: -7°C
Fuktighet: 69%
Barometer: 1030 hPa
Clouds: Few Clouds
Visibility: 10 km
Cloud details: Few Clouds 2256 m
2020/03/30 19:50 ESGT 301950Z AUTO 27004KT 9999 FEW074/// M02/M07 Q1030
ESIB - Satenas (swe-Afb, Sweden
Distance from station: SØ 164km
Oppdatert: 30/03/2020 12:50
Few Clouds
Few Clouds
 Vind fra SV
Vind: SV 2 km/h
Temperatur: -2°C
Duggpunkt: -7°C
Fuktighet: 69%
Barometer: 1029 hPa
Clouds: Few Clouds
Visibility: 10 km
Cloud details: Few Clouds 2256 m
2020/03/30 19:50 ESIB 301950Z AUTO 23001KT 9999 FEW074/// M02/M07 Q1029
 
ENCN - Kristiansand/Kje, Norway
Distance from station: SV 202km
Oppdatert: 30/03/2020 12:50
Klart
Klart
 Vind fra SV
Vind: SV 9 km/h
Temperatur: 2°C
Wind Chill: -1°C
Duggpunkt: -4°C
Fuktighet: 65%
Barometer: 1031 hPa
Oversikt: Klart
Visibility: greater than 10 km
2020/03/30 19:50 ENCN 301950Z 22005KT CAVOK 02/M04 Q1031
EKSN - Sindal Airport, Denmark
Distance from station: S 217km
Oppdatert: 30/03/2020 04:50
NOT Current
Few Clouds
Few Clouds
 Vind fra N
Vind: N 24 km/h
Temperatur: 5°C
Wind Chill: 1°C
Duggpunkt: -6°C
Fuktighet: 45%
Barometer: 1029 hPa
Clouds: Few Clouds
Visibility: 10 km
Cloud details: Few Clouds 1372 m
2020/03/30 11:50 EKSN 301150Z 01013KT 340V050 9999 FEW045 05/M06 Q1029
 
ESGG - Goteborg/Landvet, Sweden
Distance from station: SSØ 220km
Oppdatert: 30/03/2020 12:50
Klart
Klart
 Vind fra NNØ
Vind: NNØ 4 km/h
Temperatur: 0°C
Duggpunkt: -11°C
Fuktighet: 44%
Barometer: 1029 hPa
Oversikt: Klart
Visibility: greater than 10 km
2020/03/30 19:50 ESGG 301950Z 03002KT CAVOK M00/M11 Q1029 R03/09//95
ESGR - Skovde Airport, Sweden
Distance from station: ØSØ 221km
Oppdatert: 30/03/2020 12:50
Klart
Klart
 Vind fra calm
Vind: Stille
Temperatur: -4°C
Duggpunkt: -10°C
Fuktighet: 63%
Barometer: 1029 hPa
Clouds: Klart
Visibility: 10 km
2020/03/30 19:50 ESGR 301950Z AUTO 00000KT 9999 NCD M04/M10 Q1029
 
ESOE - Orebro (private), Sweden
Distance from station: Ø 252km
Oppdatert: 30/03/2020 12:50
Klart
Klart
 Vind fra N
Vind: N 7 km/h
Temperatur: -2°C
Wind Chill: -6°C
Duggpunkt: -11°C
Fuktighet: 51%
Barometer: 1029 hPa
Oversikt: Klart
Visibility: greater than 10 km
2020/03/30 19:50 ESOE 301950Z 01004KT CAVOK M02/M11 Q1029
EKYT - Alborg, Denmark
Distance from station: S 264km
Oppdatert: 30/03/2020 12:50
Klart
Klart
 Vind fra NV
Vind: NV 7 km/h
Temperatur: 0°C
Wind Chill: -3°C
Duggpunkt: -7°C
Fuktighet: 60%
Barometer: 1031 hPa
Clouds: Klart
Visibility: 10 km
2020/03/30 19:50 EKYT 301950Z AUTO 31004KT 9999 NCD 00/M07 Q1031
 
ENSG - Sogndal/Haukasen, Norway
Distance from station: NV 269km
Oppdatert: 30/03/2020 11:50
NOT Current
Delvis skyet
Delvis skyet
 Vind fra V
Vind: V 17 km/h
Temperatur: 0°C
Wind Chill: -4°C
Duggpunkt: -8°C
Fuktighet: 55%
Barometer: 1028 hPa
Clouds: Delvis skyet
Visibility: 10 km
Cloud details: Delvis skyet 1372 m
Delvis skyet 3048 m
2020/03/30 18:50 ENSG 301850Z 27009KT 9999 SCT045 SCT100 00/M08 Q1028 RMK WIND 3806FT 26012KT
ESGJ - Jonkoping Airpor, Sweden
Distance from station: SØ 273km
Oppdatert: 30/03/2020 12:50
Delvis skyet
Delvis skyet
 Vind fra NØ
Vind: NØ 9 km/h
Temperatur: 0°C
Wind Chill: -3°C
Duggpunkt: -10°C
Fuktighet: 47%
Barometer: 1028 hPa
Clouds: Delvis skyet
Visibility: 10 km
Cloud details: Delvis skyet 1402 m
2020/03/30 19:50 ESGJ 301950Z 05005KT 9999 SCT046 M00/M10 Q1028 R01/09//70
 
ENZV - Stavanger/Sola(A, Norway
Distance from station: V 292km
Oppdatert: 30/03/2020 12:50
Few Clouds
Few Clouds
 Vind fra NNV
Vind: NNV 17 km/h
Temperatur: 5°C
Wind Chill: 2°C
Duggpunkt: -1°C
Fuktighet: 66%
Barometer: 1031 hPa
Clouds: Few Clouds
Visibility: 10 km
Cloud details: Few Clouds 1067 m
2020/03/30 19:50 ENZV 301950Z 34009KT 9999 FEW035 05/M01 Q1031
ESSD - Borlange (swe-Af, Sweden
Distance from station: ØNØ 292km
Oppdatert: 30/03/2020 12:50
Klart
Klart
 Vind fra SØ
Vind: SØ 7 km/h
Temperatur: -5°C
Wind Chill: -8°C
Duggpunkt: -12°C
Fuktighet: 58%
Barometer: 1028 hPa
Clouds: Klart
Visibility: 10 km
2020/03/30 19:50 ESSD 301950Z AUTO 14004KT 9999 NCD M05/M12 Q1028
 
ENSO - Stord/Soerstokke, Norway
Distance from station: V 300km
Oppdatert: 30/03/2020 05:50
NOT Current
Few Clouds
Few Clouds
 Vind fra NV
Vind: NV 20 km/h
Temperatur: 8°C
Wind Chill: 4°C
Duggpunkt: 0°C
Fuktighet: 57%
Barometer: 1030 hPa
Clouds: Few Clouds
Visibility: 10 km
Cloud details: Few Clouds 762 m
2020/03/30 12:50 ENSO 301250Z 32011KT 290V350 9999 FEW025 08/M00 Q1030
ESCF - Linkoping/Malmen, Sweden
Distance from station: ØSØ 305km
Oppdatert: 30/03/2020 12:50
Klart
Klart
 Vind fra NNØ
Vind: NNØ 9 km/h
Temperatur: -2°C
Wind Chill: -6°C
Duggpunkt: -12°C
Fuktighet: 47%
Barometer: 1029 hPa
Clouds: Klart
Visibility: 10 km
2020/03/30 19:50 ESCF 301950Z AUTO 03005KT 9999 NCD M02/M12 Q1029